Language: 


Des rapports , des résumés tant et plus, au choix de chacun....


Données Historiques de Météogheer
Journalier Rapport pour Novembre 20, 2017 Unitée:  Impériale    Métrique   Les deux
Suivant Jour »
Journalier Hebdomadaire Mensuel Annuel Sur mesure
  Max: Min: Moyenne:
Température: 54.5 °F 32 °F 45.3 °F
Point de rosée: 55.4 °F 33.8 °F 45.5 °F
Humidité: 98% 0% 98%
Vent: 16.1mph 0mph 5.2mph
Rafales: 19.5mph - -
Vent- - WSW
Pression: 30.2 in 0 in -
Pluie: 0.31 in    
Historical Graphs
 
 
Données tabulaires pour Novembre 20, 2017
Heure Température Point de rosée Pression Vent Vent Rafales Humidité Pluie Taux (Horaire) Conditions
00:02 35.8 °F 35.6 °F 30.2 in West 0.9 mph 0.9 mph 98% 0 in
00:12 35.8 °F 35.6 °F 30.2 in West 0.9 mph 0.9 mph 98% 0 in
00:27 35.6 °F 35.6 °F 30.2 in West 0.9 mph 0.9 mph 98% 0 in
00:32 35.4 °F 35.6 °F 30.2 in West 0.9 mph 0.9 mph 98% 0 in
00:37 35.1 °F 35.6 °F 30.2 in West 0.9 mph 0.9 mph 98% 0 in
00:42 34.9 °F 35.6 °F 30.2 in West 0.9 mph 0.9 mph 98% 0 in
00:47 34.7 °F 35.6 °F 30.2 in West 0.9 mph 0.9 mph 98% 0 in
00:52 34.5 °F 33.8 °F 30.2 in West 0.9 mph 0.9 mph 98% 0 in
00:57 34.3 °F 33.8 °F 30.2 in West 0.9 mph 0.9 mph 98% 0 in
01:02 34 °F 33.8 °F 30.2 in West 0.9 mph 0.9 mph 98% 0 in
01:07 34 °F 33.8 °F 30.2 in West 0.9 mph 0.9 mph 98% 0 in
01:22 34 °F 33.8 °F 30.2 in West 0.9 mph 0.9 mph 98% 0 in
01:27 33.8 °F 33.8 °F 30.2 in West 0.9 mph 0.9 mph 98% 0 in
01:37 33.8 °F 33.8 °F 30.2 in West 0.9 mph 0.9 mph 98% 0 in
01:47 33.6 °F 33.8 °F 30.2 in West 0.9 mph 0.9 mph 98% 0 in
01:53 33.6 °F 33.8 °F 30.2 in West 0.9 mph 0.9 mph 98% 0 in
01:58 33.6 °F 33.8 °F 30.2 in West 0.9 mph 0.9 mph 98% 0 in
02:03 33.8 °F 33.8 °F 30.2 in West 0.9 mph 0.9 mph 98% 0 in
02:18 33.8 °F 33.8 °F 30.1 in West 0.9 mph 0.9 mph 98% 0 in
02:23 33.8 °F 33.8 °F 30.1 in West 0.9 mph 0.9 mph 98% 0 in
02:31 34 °F 33.8 °F 30.2 in West 0.9 mph 0.9 mph 98% 0 in
02:36 33.8 °F 33.8 °F 30.2 in West 0.9 mph 0.9 mph 98% 0 in
02:41 33.8 °F 33.8 °F 30.1 in West 0.9 mph 0.9 mph 98% 0 in
02:51 33.8 °F 33.8 °F 30.1 in West 0.9 mph 0.9 mph 98% 0 in
02:56 33.8 °F 33.8 °F 30.2 in West 0.9 mph 0.9 mph 98% 0 in
03:02 32 °F 33.8 °F 0 in Calm     0% 0 in
03:07 34 °F 33.8 °F 30.2 in Calm     98% 0 in
03:12 34 °F 33.8 °F 30.2 in Calm     98% 0 in
03:59 35.1 °F 35.6 °F 30.2 in Calm     98% 0 in
04:09 35.1 °F 35.6 °F 30.2 in Calm     98% 0 in
04:14 35.1 °F 35.6 °F 30.1 in Calm     98% 0 in
04:24 35.1 °F 35.6 °F 30.1 in Calm     98% 0 in
04:29 35.1 °F 35.6 °F 30.1 in Calm     98% 0 in
04:39 35.1 °F 35.6 °F 30.1 in Calm     98% 0 in
04:41 35.1 °F 35.6 °F 30.1 in Calm     98% 0 in
04:46 35.1 °F 35.6 °F 30.1 in Calm     98% 0 in
04:51 35.1 °F 35.6 °F 30.1 in Calm     98% 0 in
05:01 35.1 °F 35.6 °F 30.1 in Calm     98% 0 in
05:06 35.1 °F 35.6 °F 30.1 in Calm     98% 0 in
05:16 35.4 °F 35.6 °F 30.1 in Calm     98% 0 in
05:21 35.6 °F 35.6 °F 30.1 in Calm     98% 0 in
05:26 35.6 °F 35.6 °F 30.1 in Calm     98% 0 in
05:31 35.8 °F 35.6 °F 30.1 in Calm     98% 0 in
05:41 36.1 °F 37.4 °F 30.1 in Calm     98% 0 in
05:46 36.3 °F 37.4 °F 30.1 in Calm     98% 0 in
05:51 36.5 °F 37.4 °F 30.1 in Calm     98% 0 in
05:56 36.7 °F 37.4 °F 30.1 in Calm     98% 0 in
06:01 36.7 °F 37.4 °F 30.1 in Calm     98% 0 in
06:17 37 °F 37.4 °F 30.1 in Calm     98% 0 in
06:32 37.6 °F 37.4 °F 30.1 in Calm     98% 0 in
06:37 37.8 °F 37.4 °F 30.1 in Calm     98% 0 in
06:42 38.1 °F 37.4 °F 30.1 in Calm     98% 0 in
06:47 38.3 °F 39.2 °F 30.1 in Calm     98% 0 in
06:52 38.5 °F 39.2 °F 30.1 in Calm     98% 0 in
06:57 38.7 °F 39.2 °F 30.1 in Calm     98% 0 in
07:02 38.8 °F 39.2 °F 30.1 in SSE 3.1 mph 4 mph 98% 0 in
07:07 38.8 °F 39.2 °F 30.1 in South 2.9 mph 4 mph 98% 0 in
07:17 39.2 °F 39.2 °F 30.1 in SSE 2.9 mph 6 mph 98% 0 in
07:23 39.4 °F 39.2 °F 30.1 in SW 3.4 mph 4.9 mph 98% 0 in
07:28 39.4 °F 39.2 °F 30.1 in SW 3.6 mph 4.9 mph 98% 0 in
07:33 39.4 °F 39.2 °F 30.1 in SW 3.8 mph 6.3 mph 98% 0 in
07:38 39.7 °F 39.2 °F 30.1 in Calm   6.3 mph 98% 0 in
07:43 39.9 °F 39.2 °F 30.1 in SSW 4.3 mph 5.8 mph 98% 0 in
07:48 39.9 °F 39.2 °F 30.1 in South 4.9 mph 5.8 mph 98% 0 in
07:53 39.9 °F 39.2 °F 30.1 in SSW 5.8 mph 5.8 mph 98% 0 in
07:58 39.9 °F 39.2 °F 30.1 in Calm   6 mph 98% 0 in
08:03 39.9 °F 39.2 °F 30.1 in SW 4 mph 6 mph 98% 0 in
08:08 39.9 °F 39.2 °F 30.1 in Calm   5.4 mph 98% 0 in
08:13 39.9 °F 39.2 °F 30.1 in SW 2.2 mph 6 mph 98% 0 in
08:18 39.9 °F 39.2 °F 30.1 in SSW 3.6 mph 6 mph 98% 0 in
08:28 39.9 °F 39.2 °F 30.1 in SSW 2.7 mph 6.5 mph 98% 0 in
08:33 39.9 °F 39.2 °F 30.1 in South 3.1 mph 6.3 mph 98% 0 in
08:38 40.8 °F 41 °F 30.1 in South 6 mph 8.1 mph 98% 0 in
08:43 40.8 °F 41 °F 30.1 in South 3.1 mph 8.1 mph 98% 0 in
08:48 40.8 °F 41 °F 30.1 in SSW 3.8 mph 6.3 mph 98% 0 in
08:53 40.8 °F 41 °F 30.1 in SSW 1.3 mph 6.3 mph 98% 0 in
08:58 40.8 °F 41 °F 30.1 in South 4.3 mph 6.9 mph 98% 0 in
09:03 40.8 °F 41 °F 30.1 in SSW 5.6 mph 8.7 mph 98% 0 in
09:08 41.5 °F 42.8 °F 30.1 in SW 2.9 mph 8.7 mph 98% 0 in
09:13 41.5 °F 42.8 °F 30.1 in SW 4.5 mph 7.4 mph 98% 0 in
09:19 41.5 °F 42.8 °F 30.1 in South 1.6 mph 7.4 mph 98% 0 in
09:29 42.1 °F 42.8 °F 30.1 in South 4.7 mph 5.8 mph 98% 0 in
09:34 42.3 °F 42.8 °F 30.1 in SSW 5.6 mph 8.1 mph 98% 0.01 in
09:39 42.4 °F 42.8 °F 30.1 in SSW 1.3 mph 8.1 mph 98% 0.01 in
09:44 42.4 °F 42.8 °F 30.1 in Calm   5.6 mph 98% 0.01 in
09:54 42.8 °F 42.8 °F 30.1 in SSW 2.9 mph 5.6 mph 98% 0.01 in
09:59 43 °F 42.8 °F 30.1 in Calm   5.6 mph 98% 0.01 in
10:04 43.2 °F 42.8 °F 30.1 in Calm   3.8 mph 98% 0.01 in
10:09 43.2 °F 42.8 °F 30.1 in Calm   3.1 mph 98% 0.02 in
10:14 43.3 °F 42.8 °F 30 in SW 3.4 mph 3.4 mph 98% 0.02 in
10:24 43.5 °F 42.8 °F 30 in Calm   2.7 mph 98% 0.02 in
10:29 43.7 °F 44.6 °F 30 in SSW 1.6 mph 3.6 mph 98% 0.02 in
10:44 44.2 °F 44.6 °F 30 in WSW 3.8 mph 6 mph 98% 0.02 in
10:50 44.4 °F 44.6 °F 30 in WSW 4.9 mph 6.3 mph 98% 0.02 in
10:55 44.6 °F 44.6 °F 30 in WSW 6.3 mph 8.1 mph 98% 0.02 in
11:00 44.8 °F 44.6 °F 30 in Calm   8.1 mph 98% 0.02 in
11:15 45.1 °F 44.6 °F 30 in WSW 4.9 mph 6 mph 98% 0.01 in
11:20 45.3 °F 44.6 °F 30 in SW 4.9 mph 6.3 mph 98% 0.01 in
11:25 45.3 °F 44.6 °F 30 in SW 5.4 mph 6.5 mph 98% 0.01 in
11:30 45.5 °F 46.4 °F 30 in SW 6.5 mph 6.5 mph 98% 0.01 in
11:35 45.9 °F 46.4 °F 30 in WSW 5.8 mph 7.4 mph 98% 0.01 in
11:46 46.2 °F 46.4 °F 30 in SW 6.3 mph 7.8 mph 98% 0.01 in
11:51 46.2 °F 46.4 °F 30 in SW 5.8 mph 7.4 mph 98% 0.01 in
11:56 46.4 °F 46.4 °F 30 in WSW 6.3 mph 8.1 mph 98% 0.01 in
12:06 46.8 °F 46.4 °F 30 in WSW 6.3 mph 8.7 mph 98% 0.01 in
12:11 46.9 °F 48.2 °F 30 in SW 6.3 mph 11.9 mph 98% 0.02 in
12:16 47.3 °F 48.2 °F 30 in WSW 3.4 mph 11.9 mph 98% 0.02 in
12:21 47.5 °F 48.2 °F 30 in SW 6.3 mph 10.3 mph 98% 0.02 in
12:26 47.7 °F 48.2 °F 30 in SW 3.8 mph 10.3 mph 98% 0.02 in
12:36 47.8 °F 48.2 °F 30 in SW 3.8 mph 8.7 mph 98% 0.03 in
12:41 48.2 °F 48.2 °F 30 in WSW 7.6 mph 11 mph 98% 0.04 in
12:51 48.4 °F 48.2 °F 30 in SW 7.2 mph 12.1 mph 98% 0.04 in
13:01 48.6 °F 48.2 °F 30 in South 7.4 mph 9.6 mph 98% 0.05 in
13:06 48.6 °F 48.2 °F 30 in SW 6.3 mph 9.6 mph 98% 0.05 in
13:11 48.7 °F 48.2 °F 30 in SW 6.5 mph 8.7 mph 98% 0.04 in
13:16 48.7 °F 48.2 °F 30 in SSW 5.6 mph 10.1 mph 98% 0.05 in
13:21 48.9 °F 48.2 °F 30 in SW 5.8 mph 10.5 mph 98% 0.05 in
13:26 49.1 °F 50 °F 30 in SSW 6 mph 10.5 mph 98% 0.05 in
13:37 49.3 °F 50 °F 30 in SSW 3.6 mph 8.7 mph 98% 0.03 in
13:52 49.6 °F 50 °F 30 in SW 7.4 mph 10.1 mph 98% 0.03 in
13:57 49.8 °F 50 °F 30 in SW 9.8 mph 10.1 mph 98% 0.02 in
14:14 50.2 °F 50 °F 30 in SW 7.2 mph 10.5 mph 98% 0.01 in
14:19 50.2 °F 50 °F 30 in SSW 7.6 mph 10.1 mph 98% 0.01 in
14:24 50.2 °F 50 °F 30 in WSW 5.8 mph 8.7 mph 98% 0.01 in
14:39 50.2 °F 50 °F 29.9 in SW 6 mph 9.4 mph 98% 0 in
14:44 50.4 °F 50 °F 29.9 in WSW 6.5 mph 9.4 mph 98% 0 in
14:54 50.4 °F 50 °F 29.9 in SW 8.1 mph 8.5 mph 98% 0 in
14:59 50.4 °F 50 °F 29.9 in WSW 7.6 mph 8.5 mph 98% 0 in
15:04 50.5 °F 50 °F 29.9 in SW 4.3 mph 8.1 mph 98% 0.01 in
15:06 50.5 °F 50 °F 29.9 in SW 4.9 mph 8.1 mph 98% 0.01 in
15:16 50.7 °F 50 °F 29.9 in SW 5.4 mph 8.5 mph 98% 0.01 in
15:21 50.7 °F 50 °F 29.9 in WSW 8.1 mph 8.1 mph 98% 0.01 in
15:26 51.1 °F 51.8 °F 29.9 in WSW 6.3 mph 10.3 mph 98% 0.01 in
15:31 51.1 °F 51.8 °F 29.9 in WSW 9.6 mph 10.5 mph 98% 0.01 in
15:36 51.6 °F 51.8 °F 29.9 in WSW 10.5 mph 12.8 mph 98% 0.01 in
15:47 52 °F 51.8 °F 29.9 in WSW 10.1 mph 14.3 mph 98% 0.01 in
15:52 52 °F 51.8 °F 29.9 in WSW 7.8 mph 14.8 mph 98% 0.01 in
15:53 52 °F 51.8 °F 29.9 in WSW 8.7 mph 14.8 mph 98% 0.01 in
15:58 52 °F 51.8 °F 29.9 in WSW 10.7 mph 13.9 mph 98% 0.01 in
16:03 52 °F 51.8 °F 29.9 in SW 14.3 mph 14.3 mph 98% 0 in
16:13 52 °F 51.8 °F 29.9 in WSW 8.7 mph 13 mph 98% 0 in
16:28 51.6 °F 51.8 °F 29.9 in SW 5.6 mph 7.6 mph 98% 0 in
16:38 51.4 °F 51.8 °F 29.9 in SW 6.5 mph 8.7 mph 98% 0 in
16:43 51.4 °F 51.8 °F 29.9 in WSW 5.8 mph 10.1 mph 98% 0.01 in
16:48 51.4 °F 51.8 °F 29.9 in WSW 7.6 mph 10.1 mph 98% 0.01 in
16:53 51.3 °F 51.8 °F 29.9 in WSW 5.6 mph 8.7 mph 98% 0.01 in
16:58 51.3 °F 51.8 °F 29.9 in SSW 6.5 mph 8.5 mph 98% 0.03 in
17:03 51.3 °F 51.8 °F 29.9 in WSW 6.3 mph 10.5 mph 98% 0.03 in
17:08 51.3 °F 51.8 °F 29.9 in SW 6.3 mph 12.3 mph 98% 0.04 in
17:13 51.3 °F 51.8 °F 29.9 in WSW 12.1 mph 12.3 mph 98% 0.04 in
17:18 51.3 °F 51.8 °F 29.9 in SSW 12.5 mph 12.5 mph 98% 0.05 in
17:24 51.3 °F 51.8 °F 29.9 in WSW 11 mph 12.5 mph 98% 0.06 in
17:34 51.4 °F 51.8 °F 29.9 in WSW 11 mph 12.3 mph 98% 0.06 in
17:39 51.4 °F 51.8 °F 29.9 in SW 7.6 mph 12.3 mph 98% 0.05 in
17:44 51.4 °F 51.8 °F 29.9 in WSW 6 mph 10.7 mph 98% 0.05 in
17:49 51.6 °F 51.8 °F 29.9 in WSW 8.7 mph 11 mph 98% 0.05 in
17:59 51.6 °F 51.8 °F 29.9 in SW 7.6 mph 11.2 mph 98% 0.03 in
18:04 51.6 °F 51.8 °F 29.9 in SSW 7.6 mph 11.2 mph 98% 0.03 in
18:14 51.6 °F 51.8 °F 29.9 in WSW 7.6 mph 11 mph 98% 0.01 in
18:29 52 °F 51.8 °F 29.9 in West 7.6 mph 11.9 mph 98% 0 in
18:39 52.5 °F 51.8 °F 29.9 in WSW 11.4 mph 13 mph 98% 0 in
18:44 52.7 °F 53.6 °F 29.9 in West 10.1 mph 13 mph 98% 0.01 in
18:49 52.9 °F 53.6 °F 29.9 in West 7.8 mph 13.2 mph 98% 0.01 in
18:59 53.1 °F 53.6 °F 29.9 in WSW 5.8 mph 10.1 mph 98% 0.01 in
19:04 53.1 °F 53.6 °F 29.9 in West 12.5 mph 14.8 mph 98% 0.01 in
19:09 53.2 °F 53.6 °F 29.9 in West 8.7 mph 15.2 mph 98% 0.02 in
19:13 53.2 °F 53.6 °F 29.9 in WSW 10.5 mph 15.2 mph 98% 0.02 in
19:18 53.2 °F 53.6 °F 29.9 in WSW 12.5 mph 17.7 mph 98% 0.03 in
19:23 53.4 °F 53.6 °F 29.9 in WNW 11 mph 19.5 mph 98% 0.03 in
19:28 53.4 °F 53.6 °F 29.9 in WSW 15.2 mph 19.5 mph 98% 0.05 in
19:33 53.4 °F 53.6 °F 29.9 in WSW 12.5 mph 19 mph 98% 0.06 in
19:34 53.4 °F 53.6 °F 29.9 in West 10.1 mph 19 mph 98% 0.06 in
19:39 53.4 °F 53.6 °F 29.9 in West 12.8 mph 14.8 mph 98% 0.06 in
19:49 53.6 °F 53.6 °F 29.9 in WSW 10.7 mph 16.1 mph 98% 0.06 in
19:54 53.6 °F 53.6 °F 29.9 in WSW 11.2 mph 14.8 mph 98% 0.07 in
19:59 53.6 °F 53.6 °F 29.9 in West 12.8 mph 14.8 mph 98% 0.07 in
20:04 53.4 °F 53.6 °F 29.9 in WSW 7.6 mph 12.8 mph 98% 0.07 in
20:08 53.4 °F 53.6 °F 29.9 in West 9.4 mph 12.8 mph 98% 0.06 in
20:13 53.4 °F 53.6 °F 29.9 in WSW 8.1 mph 13 mph 98% 0.06 in
20:18 53.4 °F 53.6 °F 29.9 in West 7.8 mph 13 mph 98% 0.05 in
20:28 53.4 °F 53.6 °F 29.9 in WSW 8.7 mph 12.5 mph 98% 0.03 in
20:38 53.6 °F 53.6 °F 29.9 in West 11 mph 13.2 mph 98% 0.02 in
20:53 53.8 °F 53.6 °F 29.9 in West 9.8 mph 12.8 mph 98% 0 in
20:58 53.8 °F 53.6 °F 29.9 in West 9.8 mph 15.2 mph 98% 0 in
21:03 54 °F 53.6 °F 29.9 in West 7.6 mph 15.2 mph 98% 0 in
21:08 54 °F 53.6 °F 29.9 in WSW 7.6 mph 12.8 mph 98% 0 in
21:13 54 °F 53.6 °F 29.9 in WSW 10.3 mph 10.3 mph 98% 0 in
21:33 54.1 °F 55.4 °F 29.9 in WSW 8.9 mph 12.5 mph 98% 0 in
21:38 54.3 °F 55.4 °F 29.9 in West 7.4 mph 12.5 mph 98% 0 in
21:43 54.3 °F 55.4 °F 29.9 in West 11 mph 12.8 mph 98% 0 in
21:48 54.5 °F 55.4 °F 29.9 in WSW 13.2 mph 13.2 mph 98% 0 in
21:53 54.5 °F 55.4 °F 29.9 in WNW 12.8 mph 14.3 mph 98% 0.01 in
21:59 54.5 °F 55.4 °F 29.9 in SSW 10.1 mph 14.3 mph 98% 0.01 in
22:09 54.5 °F 55.4 °F 29.9 in WSW 16.1 mph 16.1 mph 98% 0.01 in
22:14 54.5 °F 55.4 °F 29.9 in WSW 10.3 mph 16.1 mph 98% 0.01 in
22:19 54.5 °F 55.4 °F 29.9 in WSW 5.8 mph 12.3 mph 98% 0.01 in
22:24 54.5 °F 55.4 °F 29.9 in WSW 10.3 mph 14.3 mph 98% 0.01 in
22:29 54.5 °F 55.4 °F 29.9 in West 11 mph 15.2 mph 98% 0.01 in
22:34 54.5 °F 55.4 °F 29.9 in West 7.6 mph 15.2 mph 98% 0.01 in
22:39 54.5 °F 55.4 °F 29.9 in West 7.6 mph 12.8 mph 98% 0.01 in
22:44 54.5 °F 55.4 °F 29.9 in WSW 9.8 mph 12.8 mph 98% 0.01 in
22:55 54.5 °F 55.4 °F 29.9 in West 12.3 mph 13.2 mph 98% 0 in
23:00 54.5 °F 55.4 °F 29.9 in WSW 5.8 mph 17.7 mph 98% 0 in
23:05 54.5 °F 55.4 °F 29.9 in West 6.5 mph 17.7 mph 98% 0 in
23:10 54.5 °F 55.4 °F 29.9 in WSW 10.5 mph 15.4 mph 98% 0 in
23:20 54.5 °F 55.4 °F 29.9 in WSW 7.8 mph 13.6 mph 98% 0.01 in
23:24 54.5 °F 55.4 °F 29.9 in West 7.8 mph 10.5 mph 98% 0.01 in
23:40 54.3 °F 55.4 °F 29.9 in WSW 6 mph 7.4 mph 98% 0.02 in
23:50 54.3 °F 55.4 °F 29.9 in West 4.3 mph 9.8 mph 98% 0.02 in
23:54 54.3 °F 55.4 °F 29.9 in WSW 5.6 mph 9.8 mph 98% 0.02 in
Données Historique de Météo Turbie

Mise a jour : 26/05/2018 06:16:13
Généré par Cumulus 1.9.4 (1099)